createdAt,value
2023-04-25T00:00:58.748Z,51.60
2023-04-25T00:03:27.678Z,51.90
2023-04-25T00:06:03.821Z,45.20
2023-04-25T00:08:39.926Z,47.70
2023-04-25T00:11:25.952Z,49.70
2023-04-25T00:14:20.741Z,43.20
2023-04-25T00:16:54.767Z,41.20
2023-04-25T00:19:43.478Z,44.20
2023-04-25T00:22:28.825Z,51.00
2023-04-25T00:25:16.293Z,50.10
2023-04-25T00:27:43.885Z,50.90
2023-04-25T00:30:32.017Z,47.70
2023-04-25T00:33:46.639Z,46.40
2023-04-25T00:36:33.967Z,48.90
2023-04-25T00:39:05.122Z,57.40
2023-04-25T00:41:34.040Z,49.60
2023-04-25T00:44:03.879Z,49.70
2023-04-25T00:46:32.416Z,52.30
2023-04-25T00:49:26.960Z,52.40
2023-04-25T00:51:55.006Z,52.70
2023-04-25T00:54:28.934Z,54.50
2023-04-25T00:57:02.125Z,66.40
2023-04-25T00:59:50.364Z,73.90
2023-04-25T01:02:22.830Z,75.20
2023-04-25T01:04:54.606Z,78.50
2023-04-25T01:07:26.791Z,73.60
2023-04-25T01:09:58.875Z,78.10
2023-04-25T01:12:35.482Z,80.10
2023-04-25T01:15:28.732Z,77.90
2023-04-25T01:20:30.325Z,79.50
2023-04-25T01:22:59.340Z,78.90
2023-04-25T01:25:57.480Z,83.20
2023-04-25T01:28:32.893Z,81.10
2023-04-25T01:31:14.849Z,80.30
2023-04-25T01:34:08.333Z,86.50
2023-04-25T01:36:50.424Z,83.40
2023-04-25T01:40:08.530Z,77.30
2023-04-25T01:42:41.616Z,85.40
2023-04-25T01:45:22.205Z,74.80
2023-04-25T01:47:56.234Z,73.70
2023-04-25T01:51:01.356Z,75.70
2023-04-25T01:53:32.307Z,68.10
2023-04-25T01:56:02.822Z,73.20
2023-04-25T01:58:54.469Z,76.00
2023-04-25T02:02:21.648Z,74.00
2023-04-25T02:05:40.820Z,73.80
2023-04-25T02:08:10.129Z,67.40
2023-04-25T02:13:10.360Z,68.70
2023-04-25T02:15:43.691Z,68.50
2023-04-25T02:18:18.631Z,59.30
2023-04-25T02:20:46.039Z,67.40
2023-04-25T02:23:13.268Z,62.90
2023-04-25T02:25:40.043Z,67.80
2023-04-25T02:28:06.903Z,63.60
2023-04-25T02:30:33.723Z,57.30
2023-04-25T02:33:00.438Z,63.60
2023-04-25T02:35:27.130Z,63.80
2023-04-25T02:40:21.436Z,65.10
2023-04-25T02:42:54.857Z,67.20
2023-04-25T02:45:43.405Z,58.10
2023-04-25T02:48:10.445Z,63.80
2023-04-25T02:50:38.563Z,61.50
2023-04-25T02:53:06.058Z,56.60
2023-04-25T02:55:41.471Z,60.70
2023-04-25T02:58:13.252Z,67.50
2023-04-25T03:00:45.358Z,61.80
2023-04-25T03:03:34.112Z,58.90
2023-04-25T03:06:18.947Z,56.90
2023-04-25T03:08:56.620Z,54.70
2023-04-25T03:11:36.650Z,59.70
2023-04-25T03:14:06.255Z,62.40
2023-04-25T03:16:36.869Z,57.60
2023-04-25T03:19:09.796Z,61.50
2023-04-25T03:21:41.938Z,58.10
2023-04-25T03:24:33.030Z,58.10
2023-04-25T03:27:02.228Z,61.20
2023-04-25T03:29:29.674Z,60.80
2023-04-25T03:32:07.817Z,63.40
2023-04-25T03:34:47.982Z,60.20
2023-04-25T03:37:31.418Z,59.90
2023-04-25T03:40:09.443Z,59.80
2023-04-25T03:43:11.593Z,61.50
2023-04-25T03:45:43.592Z,59.80
2023-04-25T03:48:12.854Z,61.90
2023-04-25T03:50:40.301Z,64.40
2023-04-25T03:53:29.161Z,53.80
2023-04-25T16:21:33.108Z,12.60
2023-04-25T16:24:00.264Z,15.30
2023-04-25T16:26:27.926Z,11.50
2023-04-25T16:28:56.920Z,12.00
2023-04-25T16:31:26.394Z,13.00
2023-04-25T16:33:54.527Z,10.20
2023-04-25T16:36:22.430Z,12.40
2023-04-25T16:38:57.781Z,14.50
2023-04-25T16:41:28.234Z,11.90
2023-04-25T16:43:55.441Z,10.10
2023-04-25T16:46:42.504Z,11.10
2023-04-25T16:49:09.847Z,10.10
2023-04-25T16:51:38.503Z,8.60
2023-04-25T16:54:05.861Z,6.50
2023-04-25T16:56:32.452Z,7.40
2023-04-25T16:58:58.942Z,7.70
2023-04-25T17:01:25.753Z,4.80
2023-04-25T17:03:52.584Z,3.90
2023-04-25T17:06:19.264Z,4.20
2023-04-25T17:08:45.804Z,3.60
2023-04-25T17:11:12.374Z,3.30
2023-04-25T17:13:39.318Z,4.00
2023-04-25T17:16:06.847Z,2.30
2023-04-25T17:18:34.402Z,3.40
2023-04-25T17:21:04.568Z,3.30
2023-04-25T17:23:36.665Z,2.40
2023-04-25T17:26:05.018Z,2.30
2023-04-25T17:28:32.642Z,2.20
2023-04-25T17:33:28.095Z,2.60
2023-04-25T17:35:58.238Z,2.60
2023-04-25T17:38:25.929Z,2.00
2023-04-25T17:40:56.286Z,2.30
2023-04-25T17:43:24.122Z,2.70
2023-04-25T17:45:51.780Z,2.50
2023-04-25T17:48:22.342Z,3.00
2023-04-25T17:50:51.353Z,3.50
2023-04-25T17:53:19.733Z,2.70
2023-04-25T17:56:28.062Z,3.00
2023-04-25T17:59:27.661Z,4.00
2023-04-25T18:01:55.134Z,3.40
2023-04-25T18:04:58.389Z,3.80
2023-04-25T18:08:24.950Z,3.60
2023-04-25T18:11:34.572Z,4.70
2023-04-25T18:14:24.932Z,3.60
2023-04-25T18:17:01.268Z,3.00
2023-04-25T18:19:29.121Z,4.70
2023-04-25T18:22:27.510Z,4.40
2023-04-25T18:25:17.190Z,3.80
2023-04-25T18:27:48.137Z,5.10
2023-04-25T18:30:16.203Z,3.80
2023-04-25T18:32:44.717Z,3.30
2023-04-25T18:35:12.408Z,4.30
2023-04-25T18:37:41.650Z,5.70
2023-04-25T18:40:13.136Z,4.70
2023-04-25T18:42:41.220Z,4.70
2023-04-25T18:45:10.417Z,5.20
2023-04-25T18:47:38.122Z,6.20
2023-04-25T18:52:34.324Z,4.70
2023-04-25T18:57:29.000Z,4.20
2023-04-25T18:59:58.100Z,5.30
2023-04-25T19:02:25.844Z,6.60
2023-04-25T19:04:55.804Z,6.60
2023-04-25T19:07:23.868Z,5.80
2023-04-25T19:09:51.459Z,6.10
2023-04-25T19:12:19.307Z,6.50
2023-04-25T19:14:50.347Z,7.20
2023-04-25T21:33:09.631Z,1.20
2023-04-25T21:36:01.576Z,1.60
2023-04-25T21:38:52.928Z,0.90
2023-04-25T21:42:08.050Z,1.20
2023-04-25T21:44:36.557Z,2.40
2023-04-25T21:47:38.375Z,1.80
2023-04-25T21:50:08.252Z,1.80
2023-04-25T21:52:51.211Z,1.80
2023-04-25T21:55:39.278Z,1.50
2023-04-25T21:58:06.669Z,2.00
2023-04-25T22:00:33.887Z,1.50
2023-04-25T22:03:00.875Z,1.50
2023-04-25T22:05:28.808Z,1.70
2023-04-25T22:07:58.918Z,1.20
2023-04-25T22:10:28.668Z,0.60
2023-04-25T22:12:55.434Z,1.50
2023-04-25T22:15:23.138Z,1.10
2023-04-25T22:17:50.702Z,0.40
2023-04-25T22:20:22.086Z,1.10
2023-04-25T22:22:51.050Z,1.20
2023-04-25T22:25:22.087Z,2.50
2023-04-25T22:28:27.860Z,2.70
2023-04-25T22:31:21.304Z,0.60
2023-04-25T22:33:50.170Z,1.50
2023-04-25T22:36:59.237Z,1.10
2023-04-25T22:39:35.806Z,1.60
2023-04-25T22:42:04.853Z,0.60
2023-04-25T22:44:32.763Z,1.30
2023-04-25T22:47:16.452Z,1.50
2023-04-25T22:50:14.394Z,0.90
2023-04-25T22:53:09.113Z,1.40
2023-04-25T22:56:09.538Z,1.40
2023-04-25T22:59:01.713Z,1.00
2023-04-25T23:01:52.230Z,1.10
2023-04-25T23:04:27.324Z,2.00
2023-04-25T23:07:14.868Z,2.60
2023-04-25T23:10:13.546Z,2.20
2023-04-25T23:12:43.296Z,2.40
2023-04-25T23:15:26.460Z,2.30
2023-04-25T23:18:16.252Z,3.10
2023-04-25T23:20:53.975Z,2.10
2023-04-25T23:24:01.355Z,2.70
2023-04-25T23:26:43.848Z,1.90
2023-04-25T23:29:49.261Z,3.20
2023-04-25T23:32:36.305Z,3.80
2023-04-25T23:35:07.780Z,3.50
2023-04-25T23:38:20.069Z,3.10
2023-04-25T23:40:53.108Z,4.10
2023-04-25T23:43:24.013Z,6.00
2023-04-25T23:45:54.770Z,3.30
2023-04-25T23:48:21.550Z,4.10
2023-04-25T23:50:48.243Z,5.50
2023-04-25T23:53:37.636Z,4.80
2023-04-25T23:56:15.920Z,3.90
2023-04-25T23:59:03.344Z,4.60
